Time;durP1;ratioP1;P1;durP2;ratioP2;P2;SDS_P1;SDS_P2;PMS_P1;PMS_P2;Temp;Humidity;BMP_temperature;BMP_pressure;BME280_temperature;BME280_humidity;BME280_pressure;Samples;Min_cycle;Max_cycle;Signal;HPM_P1;HPM_P2
2021/12/19 00:00:33;;;;;;;40.80;25.63;;;3.70;99.90;;;;;;5092425;28;20114;-88
2021/12/19 00:03:33;;;;;;;42.42;25.27;;;3.70;99.90;;;;;;5092380;28;20020;-88
2021/12/19 00:11:04;;;;;;;45.40;26.90;;;3.70;99.90;;;;;;5092228;28;20399;-88
2021/12/19 00:13:30;;;;;;;46.67;27.33;;;3.70;99.90;;;;;;5092218;28;20036;-88
2021/12/19 00:15:56;;;;;;;46.53;25.65;;;3.60;99.90;;;;;;5074002;28;20390;-88
2021/12/19 00:18:23;;;;;;;45.17;25.92;;;3.60;99.90;;;;;;5073656;28;20554;-88
2021/12/19 00:20:48;;;;;;;43.53;26.38;;;3.50;99.90;;;;;;5091947;28;20024;-88
2021/12/19 00:23:15;;;;;;;42.85;26.25;;;3.50;99.90;;;;;;5091883;28;20099;-88
2021/12/19 00:25:41;;;;;;;43.65;26.98;;;3.50;99.90;;;;;;5091758;28;20020;-88
2021/12/19 00:28:07;;;;;;;43.95;25.88;;;3.60;99.90;;;;;;5091701;28;20065;-88
2021/12/19 00:30:33;;;;;;;45.53;27.08;;;3.60;99.90;;;;;;5091189;28;20024;-88
2021/12/19 00:32:59;;;;;;;43.35;24.75;;;3.50;99.90;;;;;;5091413;28;20511;-89
2021/12/19 00:35:25;;;;;;;43.67;26.70;;;3.50;99.90;;;;;;5073482;28;20025;-88
2021/12/19 00:37:51;;;;;;;40.75;25.20;;;3.50;99.90;;;;;;5091591;28;20108;-87
2021/12/19 00:40:17;;;;;;;41.15;24.77;;;3.50;99.90;;;;;;5073110;28;20027;-87
2021/12/19 00:42:50;;;;;;;39.85;25.20;;;3.50;99.90;;;;;;5091554;28;20388;-88
2021/12/19 00:45:24;;;;;;;44.22;25.98;;;3.50;99.90;;;;;;5091397;28;20527;-87
2021/12/19 00:47:50;;;;;;;42.72;25.25;;;3.60;99.90;;;;;;5072383;28;20131;-87
2021/12/19 00:50:16;;;;;;;40.15;24.25;;;3.60;99.90;;;;;;5091602;28;20136;-88
2021/12/19 00:52:46;;;;;;;44.90;24.88;;;3.70;99.90;;;;;;5093549;28;20460;-88
2021/12/19 00:55:12;;;;;;;43.10;24.65;;;3.60;99.90;;;;;;5089471;28;20089;-87
2021/12/19 00:57:38;;;;;;;39.92;24.98;;;3.60;99.90;;;;;;5089577;28;20020;-87
2021/12/19 01:00:07;;;;;;;41.80;24.42;;;3.50;99.90;;;;;;5089852;28;20024;-87
2021/12/19 01:02:33;;;;;;;42.28;26.33;;;3.50;99.90;;;;;;5089358;28;20055;-87
2021/12/19 01:04:59;;;;;;;41.83;24.73;;;3.50;99.90;;;;;;5070932;28;20510;-87
2021/12/19 01:07:24;;;;;;;40.78;25.02;;;3.50;99.90;;;;;;5090159;28;20046;-87
2021/12/19 01:09:50;;;;;;;42.17;25.20;;;3.50;99.90;;;;;;5091068;28;20090;-87
2021/12/19 01:12:16;;;;;;;43.78;25.88;;;3.50;99.90;;;;;;5072914;28;20028;-87
2021/12/19 01:14:42;;;;;;;43.83;26.55;;;3.40;99.90;;;;;;5090798;28;20032;-87
2021/12/19 01:17:08;;;;;;;40.17;25.00;;;3.40;99.90;;;;;;5090793;28;20103;-87
2021/12/19 01:19:34;;;;;;;42.03;24.55;;;3.50;99.90;;;;;;5072469;28;20064;-87
2021/12/19 01:22:00;;;;;;;41.80;25.17;;;3.50;99.90;;;;;;5090704;28;20077;-87
2021/12/19 01:24:26;;;;;;;40.03;23.42;;;3.50;99.90;;;;;;5090934;28;20024;-87
2021/12/19 01:26:52;;;;;;;43.28;26.40;;;3.50;99.90;;;;;;5090753;28;20020;-87
2021/12/19 01:29:17;;;;;;;42.78;25.98;;;3.40;99.90;;;;;;5090843;28;20020;-89
2021/12/19 01:31:43;;;;;;;43.17;26.17;;;3.40;99.90;;;;;;5090635;28;20032;-87
2021/12/19 01:34:13;;;;;;;42.53;26.20;;;3.40;99.90;;;;;;5090340;28;20035;-87
2021/12/19 01:36:43;;;;;;;46.08;27.30;;;3.30;99.90;;;;;;5090636;28;20051;-87
2021/12/19 01:39:10;;;;;;;42.38;25.10;;;3.30;99.90;;;;;;5090399;28;20099;-87
2021/12/19 01:41:45;;;;;;;43.92;26.08;;;3.30;99.90;;;;;;5091097;28;20279;-87
2021/12/19 01:44:11;;;;;;;43.38;25.08;;;3.30;99.90;;;;;;5090522;28;20098;-87
2021/12/19 01:46:37;;;;;;;43.38;25.25;;;3.30;99.90;;;;;;5090352;28;20036;-87
2021/12/19 01:49:03;;;;;;;41.58;25.00;;;3.40;99.90;;;;;;5090204;28;20149;-87
2021/12/19 01:51:29;;;;;;;39.30;25.02;;;3.40;99.90;;;;;;5090324;28;20020;-87
2021/12/19 01:53:55;;;;;;;39.88;24.58;;;3.40;99.90;;;;;;5090047;28;20032;-87
2021/12/19 01:56:21;;;;;;;42.13;24.83;;;3.40;99.90;;;;;;5071952;28;20024;-87
2021/12/19 01:58:47;;;;;;;41.30;24.63;;;3.30;99.90;;;;;;5089488;28;20034;-87
2021/12/19 02:01:14;;;;;;;37.40;23.20;;;3.30;99.90;;;;;;5090293;28;20040;-87
2021/12/19 02:03:40;;;;;;;45.95;24.80;;;3.30;99.90;;;;;;5090128;28;20456;-87
2021/12/19 02:06:05;;;;;;;45.08;26.27;;;3.20;99.90;;;;;;5071918;28;20104;-87
2021/12/19 02:08:32;;;;;;;42.92;25.08;;;3.20;99.90;;;;;;5071103;28;20392;-87
2021/12/19 02:10:57;;;;;;;39.15;24.95;;;3.20;99.90;;;;;;5070066;28;20662;-87
2021/12/19 02:13:23;;;;;;;41.45;24.90;;;3.20;99.90;;;;;;5088229;28;20298;-87
2021/12/19 02:15:50;;;;;;;41.40;25.15;;;3.20;99.90;;;;;;5070197;28;20365;-87
2021/12/19 02:18:19;;;;;;;41.95;25.67;;;3.20;99.90;;;;;;5088169;28;20065;-87
2021/12/19 02:20:50;;;;;;;38.05;23.75;;;3.20;99.90;;;;;;5088325;28;20066;-87
2021/12/19 02:23:18;;;;;;;44.90;25.73;;;3.20;99.90;;;;;;5088284;28;20555;-87
2021/12/19 02:25:44;;;;;;;42.70;25.30;;;3.20;99.90;;;;;;5089711;28;20081;-87
2021/12/19 02:28:10;;;;;;;40.47;24.98;;;3.10;99.90;;;;;;5089726;28;20127;-87
2021/12/19 02:30:36;;;;;;;43.45;25.45;;;3.10;99.90;;;;;;5089592;28;20535;-87
2021/12/19 02:33:02;;;;;;;43.88;24.83;;;3.10;99.90;;;;;;5087831;28;20028;-88
2021/12/19 02:35:32;;;;;;;40.05;24.42;;;3.20;99.90;;;;;;5088039;28;20024;-87
2021/12/19 02:48:09;;;;;;;41.15;25.15;;;3.10;99.90;;;;;;5088163;28;20028;-87
2021/12/19 02:48:56;;;;;;;43.70;24.48;;;3.10;99.90;;;;;;5089568;28;20576;-87
2021/12/19 02:51:23;;;;;;;42.10;25.25;;;3.10;99.90;;;;;;5089718;28;20024;-86
2021/12/19 02:53:49;;;;;;;42.13;24.42;;;3.10;99.90;;;;;;5089469;28;20039;-87
2021/12/19 02:56:14;;;;;;;42.47;25.63;;;3.20;99.90;;;;;;5090097;28;20016;-87
2021/12/19 02:58:42;;;;;;;39.65;24.13;;;3.10;99.90;;;;;;5089629;28;20243;-87
2021/12/19 03:01:13;;;;;;;38.95;22.67;;;3.20;99.90;;;;;;5071289;28;20438;-87
2021/12/19 03:03:38;;;;;;;41.58;25.00;;;3.10;99.90;;;;;;5089335;28;20078;-87
2021/12/19 03:06:05;;;;;;;37.63;23.27;;;3.00;99.90;;;;;;5089308;28;20024;-86
2021/12/19 03:08:32;;;;;;;42.92;25.17;;;3.00;99.90;;;;;;5070977;28;20460;-87
2021/12/19 03:18:51;;;;;;;41.60;24.52;;;3.10;99.90;;;;;;5093049;28;20035;-87
2021/12/19 03:21:19;;;;;;;36.35;22.08;;;3.10;99.90;;;;;;5092932;28;20033;-87
2021/12/19 03:23:45;;;;;;;38.85;24.05;;;3.10;99.90;;;;;;5092929;28;20111;-87
2021/12/19 03:26:11;;;;;;;43.75;24.50;;;3.10;99.90;;;;;;5092815;28;20238;-87
2021/12/19 03:28:36;;;;;;;40.08;24.83;;;3.00;99.90;;;;;;5093051;28;20028;-87
2021/12/19 03:31:07;;;;;;;45.35;25.67;;;3.00;99.90;;;;;;5092945;28;20017;-87
2021/12/19 03:33:35;;;;;;;42.00;24.83;;;3.00;99.90;;;;;;5074472;28;20374;-87
2021/12/19 03:36:02;;;;;;;41.13;24.85;;;3.00;99.90;;;;;;5092896;28;20047;-87
2021/12/19 03:38:28;;;;;;;40.70;23.90;;;2.90;99.90;;;;;;5092767;28;20020;-87
2021/12/19 03:41:12;;;;;;;38.33;23.35;;;2.90;99.90;;;;;;5092594;28;20387;-87
2021/12/19 03:43:37;;;;;;;38.42;22.65;;;3.00;99.90;;;;;;5092731;28;20028;-87
2021/12/19 03:46:03;;;;;;;41.00;23.08;;;3.00;99.90;;;;;;5092514;28;20361;-87
2021/12/19 03:48:29;;;;;;;40.88;24.02;;;3.10;99.90;;;;;;5092208;28;20512;-87
2021/12/19 03:50:55;;;;;;;40.40;24.20;;;3.10;99.90;;;;;;5092614;28;20085;-88
2021/12/19 03:53:22;;;;;;;40.25;23.98;;;3.10;99.90;;;;;;5074284;28;20260;-87
2021/12/19 03:55:50;;;;;;;39.08;23.02;;;3.10;99.90;;;;;;5074200;28;20047;-87
2021/12/19 03:58:17;;;;;;;42.00;24.63;;;3.10;99.90;;;;;;5074025;28;20061;-87
2021/12/19 04:00:44;;;;;;;38.38;23.90;;;3.10;99.90;;;;;;5092269;28;20097;-87
2021/12/19 04:03:16;;;;;;;37.72;21.92;;;3.10;99.90;;;;;;5073911;28;20145;-87
2021/12/19 04:05:42;;;;;;;38.25;23.63;;;3.10;99.90;;;;;;5092262;28;20027;-87
2021/12/19 04:08:08;;;;;;;39.88;23.77;;;3.10;99.90;;;;;;5092293;28;20020;-87
2021/12/19 04:10:34;;;;;;;37.33;22.67;;;3.00;99.90;;;;;;5074137;28;20035;-87
2021/12/19 04:13:00;;;;;;;39.45;22.67;;;2.90;99.90;;;;;;5091950;28;20099;-88
2021/12/19 04:15:26;;;;;;;37.85;22.02;;;2.90;99.90;;;;;;5091925;28;20063;-87
2021/12/19 04:17:52;;;;;;;38.40;22.33;;;3.00;99.90;;;;;;5091713;28;20016;-87
2021/12/19 04:20:19;;;;;;;39.33;23.05;;;3.00;99.90;;;;;;5091244;28;20031;-87
2021/12/19 04:22:47;;;;;;;38.30;23.70;;;3.00;99.90;;;;;;5091553;28;20028;-87
2021/12/19 04:25:13;;;;;;;39.83;23.08;;;3.10;99.90;;;;;;5091663;28;20024;-87
2021/12/19 04:27:39;;;;;;;38.80;23.15;;;3.10;99.90;;;;;;5092041;28;20031;-87
2021/12/19 04:30:06;;;;;;;35.97;22.02;;;3.00;99.90;;;;;;5091758;28;20024;-87
2021/12/19 04:32:37;;;;;;;38.45;23.67;;;3.00;99.90;;;;;;5091417;28;20022;-87
2021/12/19 04:35:05;;;;;;;38.58;22.75;;;3.00;99.90;;;;;;5073495;28;20024;-87
2021/12/19 04:40:22;;;;;;;37.05;22.75;;;2.90;99.90;;;;;;5094047;28;20039;-87
2021/12/19 04:53:58;;;;;;;35.13;21.10;;;2.80;99.90;;;;;;5091124;28;20047;-87
2021/12/19 04:56:47;;;;;;;41.88;23.65;;;2.80;99.90;;;;;;5091255;28;20409;-87
2021/12/19 05:15:46;;;;;;;41.60;22.73;;;2.90;99.90;;;;;;5091115;28;20062;-87
2021/12/19 05:18:12;;;;;;;41.42;22.77;;;3.00;99.90;;;;;;5090556;28;20099;-87
2021/12/19 05:20:40;;;;;;;36.10;21.77;;;3.00;99.90;;;;;;5090802;28;20444;-88
2021/12/19 05:23:18;;;;;;;38.05;23.33;;;3.00;99.90;;;;;;5090828;28;20043;-87
2021/12/19 05:25:43;;;;;;;39.33;22.83;;;2.90;99.90;;;;;;5090871;28;20020;-87
2021/12/19 05:28:09;;;;;;;39.38;22.75;;;2.90;99.90;;;;;;5090533;28;20099;-87
2021/12/19 05:30:35;;;;;;;38.90;22.75;;;3.00;99.90;;;;;;5090323;28;20275;-89
2021/12/19 05:33:02;;;;;;;38.55;23.63;;;3.00;99.90;;;;;;5090272;28;20024;-87
2021/12/19 05:46:27;;;;;;;;;;;2.90;99.90;;;;;;5091143;28;20153;-87
2021/12/19 05:48:53;;;;;;;42.60;23.80;;;2.80;99.90;;;;;;5089872;28;19998;-87
2021/12/19 05:51:19;;;;;;;43.10;23.77;;;2.80;99.90;;;;;;5090124;28;20024;-87
2021/12/19 05:53:45;;;;;;;41.20;23.33;;;2.80;99.90;;;;;;5090170;28;20115;-87
2021/12/19 05:56:11;;;;;;;41.70;24.35;;;2.70;99.90;;;;;;5090283;28;20146;-87
2021/12/19 05:58:36;;;;;;;41.85;24.70;;;2.70;99.90;;;;;;5090480;28;20157;-88
2021/12/19 06:01:03;;;;;;;43.78;24.73;;;2.70;99.90;;;;;;5090131;28;20027;-87
2021/12/19 06:03:29;;;;;;;40.97;23.83;;;2.60;99.90;;;;;;5090167;28;20024;-87
2021/12/19 06:05:55;;;;;;;41.80;24.33;;;2.60;99.90;;;;;;5089995;28;20518;-88
2021/12/19 06:08:21;;;;;;;45.67;26.75;;;2.50;99.90;;;;;;5089797;28;20024;-87
2021/12/19 06:10:46;;;;;;;41.55;25.20;;;2.50;99.90;;;;;;5090192;28;20227;-87
2021/12/19 06:13:12;;;;;;;43.40;25.10;;;2.60;99.90;;;;;;5090032;28;20492;-87
2021/12/19 06:15:38;;;;;;;44.58;25.67;;;2.60;99.90;;;;;;5090404;28;20093;-87
2021/12/19 06:18:04;;;;;;;44.60;26.45;;;2.60;99.90;;;;;;5089796;28;20051;-87
2021/12/19 06:20:31;;;;;;;43.88;24.83;;;2.60;99.90;;;;;;5092212;28;20027;-87
2021/12/19 06:22:58;;;;;;;41.22;23.83;;;2.50;99.90;;;;;;5090695;28;20036;-87
2021/12/19 06:25:24;;;;;;;44.85;25.85;;;2.50;99.90;;;;;;5089801;28;20016;-87
2021/12/19 06:27:50;;;;;;;45.42;26.15;;;2.50;99.90;;;;;;5089638;28;20024;-86
2021/12/19 06:30:15;;;;;;;47.30;26.85;;;2.50;99.90;;;;;;5089815;28;20530;-87
2021/12/19 06:32:41;;;;;;;40.97;25.05;;;2.50;99.90;;;;;;5089595;28;20016;-87
2021/12/19 06:35:12;;;;;;;44.50;24.40;;;2.50;99.90;;;;;;5090322;28;20028;-87
2021/12/19 06:37:38;;;;;;;42.95;23.95;;;2.40;99.90;;;;;;5090591;28;20494;-87
2021/12/19 06:40:06;;;;;;;47.55;26.83;;;2.50;99.90;;;;;;5071335;28;20072;-87
2021/12/19 06:42:32;;;;;;;44.33;25.80;;;2.50;99.90;;;;;;5089610;28;20017;-87
2021/12/19 06:44:58;;;;;;;43.28;25.65;;;2.50;99.90;;;;;;5091854;28;20028;-87
2021/12/19 06:47:24;;;;;;;45.58;26.38;;;2.60;99.90;;;;;;5093465;28;20123;-87
2021/12/19 06:49:50;;;;;;;50.75;26.92;;;2.60;99.90;;;;;;5093513;28;20662;-87
2021/12/19 06:52:15;;;;;;;41.60;24.38;;;2.50;99.90;;;;;;5093694;28;20017;-87
2021/12/19 06:54:41;;;;;;;41.38;24.00;;;2.50;99.90;;;;;;5093571;28;20075;-87
2021/12/19 06:57:07;;;;;;;41.35;24.45;;;2.60;99.90;;;;;;5075056;28;20165;-87
2021/12/19 06:59:32;;;;;;;41.78;25.02;;;2.50;99.90;;;;;;5093352;28;20107;-87
2021/12/19 07:01:58;;;;;;;44.35;25.70;;;2.40;99.90;;;;;;5093150;28;20081;-87
2021/12/19 07:04:24;;;;;;;40.85;23.67;;;2.40;99.90;;;;;;5074806;28;20554;-87
2021/12/19 07:06:49;;;;;;;38.88;22.25;;;2.50;99.90;;;;;;5093382;28;20028;-87
2021/12/19 07:09:15;;;;;;;43.83;24.98;;;2.50;99.90;;;;;;5093307;28;20024;-87
2021/12/19 07:11:42;;;;;;;43.78;25.02;;;2.60;99.90;;;;;;5093299;28;20020;-87
2021/12/19 07:14:08;;;;;;;42.53;24.33;;;2.50;99.90;;;;;;5093259;28;20483;-87
2021/12/19 07:16:34;;;;;;;41.58;25.33;;;2.60;99.90;;;;;;5093071;28;20020;-87
2021/12/19 07:19:00;;;;;;;41.17;24.80;;;2.60;99.90;;;;;;5092967;28;20027;-87
2021/12/19 07:21:28;;;;;;;43.47;23.90;;;2.60;99.90;;;;;;5074550;28;20119;-87
2021/12/19 07:24:47;;;;;;;;;;;;;;;;;;;;;
2021/12/19 07:31:39;;;;;;;43.45;24.10;;;2.70;99.90;;;;;;5074764;28;20074;-94
2021/12/19 07:34:18;;;;;;;40.03;22.77;;;2.70;99.90;;;;;;5013684;28;20500;-93
2021/12/19 07:37:22;;;;;;;39.90;22.35;;;2.70;99.90;;;;;;5062555;28;20081;-93
2021/12/19 07:43:58;;;;;;;;;;;;;;;;;;;;;
2021/12/19 07:46:53;;;;;;;42.40;24.60;;;2.70;99.90;;;;;;5078446;28;20038;-93
2021/12/19 07:49:54;;;;;;;41.00;23.65;;;2.70;99.90;;;;;;5066345;28;20138;-94
2021/12/19 07:52:20;;;;;;;46.33;24.45;;;2.70;99.90;;;;;;5067179;28;20024;-92
2021/12/19 09:11:40;;;;;;;;;;;;;;;;;;;;;
2021/12/19 09:14:41;;;;;;;;;;;;;;;;;;;;;
2021/12/19 09:17:36;;;;;;;;;;;;;;;;;;;;;
2021/12/19 09:20:11;;;;;;;44.88;25.48;;;3.50;99.90;;;;;;4907307;29;20183;-95
2021/12/19 10:03:42;;;;;;;41.83;24.35;;;3.50;99.90;;;;;;5414754;23;20437;-94
2021/12/19 10:06:30;;;;;;;41.42;23.65;;;3.50;99.90;;;;;;5013469;28;20033;-95
2021/12/19 10:09:13;;;;;;;43.92;23.73;;;3.60;99.90;;;;;;5015715;28;20029;-95
2021/12/19 10:20:38;;;;;;;;;;;;;;;;;;;;;
2021/12/19 10:23:29;;;;;;;40.08;22.30;;;3.60;99.90;;;;;;4824922;29;20044;-95
2021/12/19 10:25:56;;;;;;;37.05;21.48;;;3.50;99.90;;;;;;4859634;29;20080;-94
2021/12/19 10:46:11;;;;;;;33.70;19.45;;;3.80;99.90;;;;;;4709305;30;20529;-93
2021/12/19 10:48:44;;;;;;;36.85;20.38;;;3.80;99.90;;;;;;4782687;29;20050;-94
2021/12/19 10:55:53;;;;;;;;;;;;;;;;;;;;;
2021/12/19 10:59:58;;;;;;;;;;;;;;;;;;;;;
2021/12/19 11:06:34;;;;;;;29.60;17.52;;;3.80;99.90;;;;;;4845011;29;20099;-95
2021/12/19 11:09:29;;;;;;;31.83;17.10;;;3.90;99.90;;;;;;4942372;28;20037;-96
2021/12/19 11:12:03;;;;;;;29.77;17.58;;;4.00;99.90;;;;;;5017577;28;20043;-93
2021/12/19 11:14:39;;;;;;;27.23;16.10;;;4.00;99.90;;;;;;5010149;28;20018;-92
2021/12/19 11:17:20;;;;;;;30.65;17.73;;;4.00;99.90;;;;;;4999397;28;20026;-93
2021/12/19 11:19:52;;;;;;;27.42;15.90;;;4.00;99.90;;;;;;4996097;28;20037;-93
2021/12/19 11:22:26;;;;;;;27.75;16.30;;;4.00;99.90;;;;;;4980635;28;20100;-93
2021/12/19 11:25:04;;;;;;;30.73;17.48;;;4.10;99.90;;;;;;5000540;28;20014;-92
2021/12/19 11:27:34;;;;;;;29.00;17.48;;;4.10;99.90;;;;;;4999935;28;20417;-92
2021/12/19 11:30:00;;;;;;;27.77;15.85;;;4.10;99.90;;;;;;4999120;28;20080;-92
2021/12/19 11:32:40;;;;;;;29.45;17.15;;;4.10;99.90;;;;;;5001097;28;20429;-93
2021/12/19 11:35:10;;;;;;;28.38;17.00;;;4.00;99.90;;;;;;4999844;28;20037;-95
2021/12/19 11:37:42;;;;;;;33.33;18.17;;;3.90;99.90;;;;;;5000708;28;20093;-94
2021/12/19 11:40:13;;;;;;;32.42;18.67;;;3.90;99.90;;;;;;5004755;28;20097;-93
2021/12/19 11:42:41;;;;;;;27.80;16.45;;;3.90;99.90;;;;;;5006281;28;20494;-92
2021/12/19 11:45:38;;;;;;;28.30;15.95;;;3.80;99.90;;;;;;5003448;28;20422;-92
2021/12/19 11:48:29;;;;;;;28.92;14.85;;;3.80;99.90;;;;;;4999956;28;20053;-93
2021/12/19 11:50:57;;;;;;;28.98;15.90;;;3.80;99.90;;;;;;5002929;28;20113;-92
2021/12/19 11:53:32;;;;;;;24.40;15.02;;;3.70;99.90;;;;;;5011882;28;20065;-93
2021/12/19 11:56:08;;;;;;;23.15;13.88;;;3.80;99.90;;;;;;5005670;28;20494;-93
2021/12/19 11:58:49;;;;;;;28.60;15.18;;;4.00;99.90;;;;;;5006737;28;20017;-93
2021/12/19 12:01:31;;;;;;;26.05;13.77;;;4.00;99.90;;;;;;5006275;28;20026;-95
2021/12/19 12:04:14;;;;;;;24.33;14.73;;;4.10;99.90;;;;;;5007395;28;20033;-95
2021/12/19 12:06:43;;;;;;;27.42;15.57;;;4.20;99.90;;;;;;5010152;28;20063;-95
2021/12/19 12:09:28;;;;;;;26.75;15.43;;;4.20;99.90;;;;;;5032325;28;20085;-94
2021/12/19 12:12:00;;;;;;;29.05;16.38;;;4.20;99.90;;;;;;5010929;28;20027;-94
2021/12/19 12:14:29;;;;;;;28.27;15.85;;;4.10;99.90;;;;;;5013608;28;20099;-93
2021/12/19 12:17:03;;;;;;;27.40;16.30;;;4.00;99.90;;;;;;5012861;28;20114;-95
2021/12/19 12:19:37;;;;;;;29.55;15.57;;;4.20;99.90;;;;;;5032660;28;20089;-95
2021/12/19 12:22:45;;;;;;;29.98;17.25;;;4.30;99.90;;;;;;5019158;28;20025;-93
2021/12/19 12:25:34;;;;;;;26.92;16.50;;;4.20;99.90;;;;;;5034844;28;20041;-96
2021/12/19 12:28:10;;;;;;;31.08;16.92;;;4.30;99.90;;;;;;5016346;28;20049;-95
2021/12/19 12:30:40;;;;;;;31.58;17.50;;;4.30;99.90;;;;;;5015996;28;20049;-93
2021/12/19 12:33:14;;;;;;;27.63;16.15;;;4.40;99.90;;;;;;5038399;28;20061;-96
2021/12/19 12:35:50;;;;;;;29.25;17.25;;;4.50;99.90;;;;;;5020569;28;20089;-93
2021/12/19 12:38:46;;;;;;;31.05;17.38;;;4.50;99.90;;;;;;5017406;28;20029;-93
2021/12/19 12:41:50;;;;;;;29.92;17.33;;;4.50;99.90;;;;;;5007743;28;20088;-96
2021/12/19 12:44:22;;;;;;;28.88;16.70;;;4.40;99.90;;;;;;5007543;28;20030;-95
2021/12/19 12:47:03;;;;;;;30.88;16.70;;;4.20;99.90;;;;;;5006090;28;20026;-95
2021/12/19 12:49:34;;;;;;;31.92;18.27;;;4.20;99.90;;;;;;5027740;28;20093;-93
2021/12/19 12:52:12;;;;;;;31.95;18.98;;;4.30;99.90;;;;;;5023937;28;20033;-92
2021/12/19 12:55:14;;;;;;;;;;;;;;;;;;;;;
2021/12/19 12:58:04;;;;;;;30.02;17.80;;;4.30;99.90;;;;;;5042213;28;20607;-96
2021/12/19 13:00:39;;;;;;;33.35;18.35;;;4.30;99.90;;;;;;5032889;28;20057;-94
2021/12/19 13:03:28;;;;;;;30.23;17.83;;;4.30;99.90;;;;;;5021476;28;20026;-95
2021/12/19 13:06:03;;;;;;;30.83;16.70;;;4.20;99.90;;;;;;5019761;28;20052;-96
2021/12/19 13:08:29;;;;;;;29.67;15.93;;;4.30;99.90;;;;;;5009265;28;20041;-94
2021/12/19 13:11:10;;;;;;;29.55;17.05;;;4.20;99.90;;;;;;5028146;28;20062;-94
2021/12/19 13:13:37;;;;;;;33.33;17.50;;;4.20;99.90;;;;;;5021371;28;20068;-91
2021/12/19 13:16:04;;;;;;;29.33;15.90;;;4.20;99.90;;;;;;5034267;28;20025;-93
2021/12/19 13:18:30;;;;;;;29.90;16.73;;;4.30;99.90;;;;;;5030935;28;20032;-92
2021/12/19 13:21:03;;;;;;;32.30;17.33;;;4.30;99.90;;;;;;5017204;28;20033;-91
2021/12/19 13:23:28;;;;;;;34.78;17.27;;;4.30;99.90;;;;;;5041847;28;20339;-87
2021/12/19 13:26:01;;;;;;;32.50;17.15;;;4.30;99.90;;;;;;5041340;28;20030;-88
2021/12/19 13:28:27;;;;;;;33.83;16.60;;;4.20;99.90;;;;;;5041605;28;20021;-87
2021/12/19 13:30:55;;;;;;;32.92;16.60;;;4.30;99.90;;;;;;5037684;28;20052;-92
2021/12/19 13:33:21;;;;;;;32.97;16.90;;;4.20;99.90;;;;;;5013711;28;20042;-94
2021/12/19 13:35:53;;;;;;;35.33;18.23;;;4.20;99.90;;;;;;5012966;28;20030;-93
2021/12/19 13:38:21;;;;;;;29.77;16.85;;;4.20;99.90;;;;;;5015305;28;20025;-93
2021/12/19 13:40:52;;;;;;;35.25;18.45;;;4.20;99.90;;;;;;5014033;28;20097;-93
2021/12/19 13:43:21;;;;;;;34.22;18.20;;;4.30;99.90;;;;;;5014728;28;20544;-93
2021/12/19 13:45:50;;;;;;;36.47;18.08;;;4.20;99.90;;;;;;5014311;28;20032;-93
2021/12/19 13:48:35;;;;;;;33.90;17.27;;;4.20;99.90;;;;;;5014051;28;20025;-94
2021/12/19 13:51:17;;;;;;;34.60;18.25;;;4.20;99.90;;;;;;5029646;28;20025;-94
2021/12/19 13:53:54;;;;;;;41.53;19.25;;;4.20;99.90;;;;;;5013728;28;20083;-92
2021/12/19 13:56:31;;;;;;;39.03;18.58;;;4.20;99.90;;;;;;5014825;28;20033;-92
2021/12/19 13:59:00;;;;;;;36.13;18.48;;;4.20;99.90;;;;;;5031007;28;20053;-92
2021/12/19 14:01:33;;;;;;;54.45;22.42;;;4.20;99.90;;;;;;5013164;28;20056;-92
2021/12/19 14:04:04;;;;;;;58.58;24.50;;;4.10;99.90;;;;;;5012614;28;20025;-91
2021/12/19 14:06:37;;;;;;;68.45;25.38;;;4.10;99.90;;;;;;5010645;28;20030;-93
2021/12/19 14:09:12;;;;;;;81.35;29.10;;;4.00;99.90;;;;;;4996663;28;20018;-91
2021/12/19 14:11:42;;;;;;;43.78;21.40;;;4.00;99.90;;;;;;5001452;28;20053;-92
2021/12/19 14:14:27;;;;;;;39.72;19.58;;;4.00;99.90;;;;;;5005608;28;20029;-92
2021/12/19 14:16:58;;;;;;;40.30;20.65;;;3.90;99.90;;;;;;4993749;28;20112;-91
2021/12/19 14:19:30;;;;;;;35.72;17.90;;;3.90;99.90;;;;;;5010756;28;20030;-88
2021/12/19 14:22:09;;;;;;;43.10;20.25;;;3.80;99.90;;;;;;5021355;28;20103;-91
2021/12/19 14:24:38;;;;;;;43.55;20.70;;;3.90;99.90;;;;;;5015999;28;20018;-93
2021/12/19 14:27:16;;;;;;;42.63;20.45;;;3.90;99.90;;;;;;4993590;28;20051;-94
2021/12/19 14:29:48;;;;;;;46.60;20.95;;;3.90;99.90;;;;;;4994743;28;20030;-93
2021/12/19 14:32:27;;;;;;;45.63;20.92;;;3.90;99.90;;;;;;5010374;28;20026;-90
2021/12/19 14:34:54;;;;;;;42.08;20.65;;;3.90;99.90;;;;;;5010686;28;20502;-92
2021/12/19 14:37:35;;;;;;;42.17;19.75;;;3.80;99.90;;;;;;4994026;28;20028;-87
2021/12/19 14:40:11;;;;;;;44.38;19.08;;;3.90;99.90;;;;;;4994781;28;20386;-93
2021/12/19 14:42:47;;;;;;;43.13;19.25;;;3.90;99.90;;;;;;4993067;28;20124;-91
2021/12/19 14:45:23;;;;;;;44.97;21.30;;;3.90;99.90;;;;;;4996775;28;20116;-93
2021/12/19 14:48:11;;;;;;;46.35;21.02;;;3.90;99.90;;;;;;5011181;28;20280;-84
2021/12/19 14:50:46;;;;;;;49.28;23.50;;;3.90;99.90;;;;;;5020800;28;20032;-88
2021/12/19 14:53:29;;;;;;;47.88;21.45;;;4.00;99.90;;;;;;5020878;28;20036;-85
2021/12/19 14:56:04;;;;;;;47.08;20.65;;;3.90;99.90;;;;;;5020399;28;20037;-85
2021/12/19 14:58:38;;;;;;;49.22;22.75;;;4.00;99.90;;;;;;5020963;28;20026;-85
2021/12/19 15:01:08;;;;;;;;;;;3.90;99.90;;;;;;5020545;28;20029;-85
2021/12/19 15:03:37;;;;;;;47.90;22.02;;;3.80;99.90;;;;;;5019890;28;19910;-85
2021/12/19 15:06:11;;;;;;;42.92;19.67;;;3.80;99.90;;;;;;5038414;28;20037;-81
2021/12/19 15:08:37;;;;;;;31.48;14.93;;;3.80;99.90;;;;;;5043502;28;20043;-81
2021/12/19 15:11:03;;;;;;;49.38;22.25;;;3.80;99.90;;;;;;5042170;28;20036;-93
2021/12/19 15:13:32;;;;;;;48.08;21.85;;;3.80;99.90;;;;;;5017339;28;20033;-94
2021/12/19 15:15:59;;;;;;;44.00;20.17;;;3.80;99.90;;;;;;5015222;28;20026;-93
2021/12/19 15:18:24;;;;;;;47.60;22.15;;;3.80;99.90;;;;;;5015617;28;20033;-94
2021/12/19 15:20:51;;;;;;;43.90;20.92;;;3.70;99.90;;;;;;5017982;28;20075;-93
2021/12/19 15:23:17;;;;;;;47.80;21.08;;;3.70;99.90;;;;;;5038439;28;20091;-94
2021/12/19 15:25:48;;;;;;;43.95;20.88;;;3.70;99.90;;;;;;5016196;28;20052;-93
2021/12/19 15:28:14;;;;;;;52.80;22.77;;;3.70;99.90;;;;;;5016048;28;20022;-93
2021/12/19 15:30:41;;;;;;;51.78;22.08;;;3.60;99.90;;;;;;5016021;28;20045;-93
2021/12/19 15:33:07;;;;;;;50.22;21.75;;;3.70;99.90;;;;;;5016287;28;20030;-94
2021/12/19 15:35:33;;;;;;;48.00;23.30;;;3.70;99.90;;;;;;5016206;28;20026;-93
2021/12/19 15:38:00;;;;;;;48.72;22.88;;;3.70;99.90;;;;;;5017354;28;20022;-94
2021/12/19 15:40:26;;;;;;;53.33;22.25;;;3.70;99.90;;;;;;5034903;28;20025;-94
2021/12/19 15:42:51;;;;;;;52.20;22.23;;;3.70;99.90;;;;;;5016258;28;20029;-93
2021/12/19 15:45:17;;;;;;;48.25;22.00;;;3.70;99.90;;;;;;5038339;28;20025;-95
2021/12/19 15:47:43;;;;;;;55.35;24.10;;;3.60;99.90;;;;;;5019419;28;20144;-95
2021/12/19 15:50:10;;;;;;;47.50;21.23;;;3.60;99.90;;;;;;5019224;28;20030;-93
2021/12/19 15:52:36;;;;;;;45.20;22.20;;;3.60;99.90;;;;;;5016728;28;20036;-95
2021/12/19 15:55:04;;;;;;;52.55;22.80;;;3.60;99.90;;;;;;5015873;28;20043;-95
2021/12/19 15:57:30;;;;;;;50.50;22.05;;;3.50;99.90;;;;;;5015718;28;20022;-93
2021/12/19 15:59:57;;;;;;;52.75;23.08;;;3.50;99.90;;;;;;5015762;28;20025;-95
2021/12/19 16:02:23;;;;;;;60.97;23.67;;;3.50;99.90;;;;;;5015972;28;20029;-95
2021/12/19 16:04:48;;;;;;;49.17;22.52;;;3.50;99.90;;;;;;5023627;28;20045;-95
2021/12/19 16:07:16;;;;;;;54.20;23.25;;;3.50;99.90;;;;;;5034044;28;20505;-94
2021/12/19 16:09:42;;;;;;;54.28;24.02;;;3.50;99.90;;;;;;5021453;28;20036;-94
2021/12/19 16:12:08;;;;;;;54.30;22.30;;;3.50;99.90;;;;;;5020277;28;20500;-95
2021/12/19 16:14:34;;;;;;;56.63;24.63;;;3.50;99.90;;;;;;5017976;28;20038;-93
2021/12/19 16:17:01;;;;;;;58.25;25.73;;;3.50;99.90;;;;;;5014254;28;20025;-95
2021/12/19 16:19:27;;;;;;;61.25;25.52;;;3.50;99.90;;;;;;5015500;28;20040;-95
2021/12/19 16:21:53;;;;;;;65.15;27.58;;;3.50;99.90;;;;;;5016751;28;20021;-95
2021/12/19 16:24:22;;;;;;;63.88;26.20;;;3.50;99.90;;;;;;5016367;28;20132;-95
2021/12/19 16:26:47;;;;;;;62.70;28.25;;;3.50;99.90;;;;;;5014897;28;20540;-94
2021/12/19 16:29:13;;;;;;;64.95;25.50;;;3.50;99.90;;;;;;5018142;28;20030;-93
2021/12/19 16:31:39;;;;;;;58.10;24.13;;;3.50;99.90;;;;;;5032980;28;20018;-93
2021/12/19 16:34:05;;;;;;;59.78;24.90;;;3.50;99.90;;;;;;5015700;28;20476;-94
2021/12/19 16:36:36;;;;;;;64.10;26.08;;;3.40;99.90;;;;;;5015185;28;20108;-96
2021/12/19 16:39:09;;;;;;;59.83;26.00;;;3.40;99.90;;;;;;5016507;28;20029;-95
2021/12/19 16:41:49;;;;;;;61.30;26.73;;;3.40;99.90;;;;;;5016730;28;20382;-94
2021/12/19 16:44:21;;;;;;;59.70;25.98;;;3.50;99.90;;;;;;5014670;28;20116;-94
2021/12/19 16:46:48;;;;;;;61.17;25.73;;;3.50;99.90;;;;;;5019144;28;20121;-93
2021/12/19 16:49:16;;;;;;;59.08;24.85;;;3.50;99.90;;;;;;5033407;28;20022;-92
2021/12/19 16:51:42;;;;;;;57.28;26.05;;;3.50;99.90;;;;;;5016032;28;20026;-88